BVN8279 KAFW-KAUS
Flight info
| Callsign | BVN8279 |
|---|---|
| Flight time | 1h 29m |
| Altitude | 7000 |
| Route | TPL/N0178F060 |
| Aircraft | C208/L-SDFGR/C |
Departure
| Time | 2026-04-21 05:07 |
|---|---|
| Airport | Perot Field/Fort Worth Alliance Airport (KAFW) |
Arrival
| Time | 2026-04-21 06:36 |
|---|---|
| Airport | Austin Bergstrom International Airport (KAUS) |
| Time | Latitude | Longitude | Altitude | Speed | Heading |
|---|---|---|---|---|---|
| 2026-04-21 04:51 | 32.99441 | -97.31518 | 687 ft | 0 kts | 81° |
| 2026-04-21 05:01 | 32.99441 | -97.31517 | 680 ft | 1 kts | 81° |
| 2026-04-21 05:01 | 32.99441 | -97.31515 | 680 ft | 0 kts | 81° |
| 2026-04-21 05:01 | 32.99447 | -97.31512 | 683 ft | 8 kts | 3° |
| 2026-04-21 05:01 | 32.99424 | -97.31581 | 689 ft | 16 kts | 150° |
| 2026-04-21 05:02 | 32.99342 | -97.31556 | 686 ft | 13 kts | 157° |
| 2026-04-21 05:02 | 32.99273 | -97.31575 | 689 ft | 8 kts | 245° |
| 2026-04-21 05:02 | 32.99262 | -97.31652 | 689 ft | 17 kts | 261° |
| 2026-04-21 05:02 | 32.99309 | -97.31771 | 689 ft | 20 kts | 353° |
| 2026-04-21 05:03 | 32.99479 | -97.31804 | 689 ft | 29 kts | 351° |
| 2026-04-21 05:03 | 32.99678 | -97.31845 | 689 ft | 28 kts | 350° |
| 2026-04-21 05:03 | 32.99850 | -97.31879 | 689 ft | 23 kts | 352° |
| 2026-04-21 05:03 | 33.00020 | -97.31914 | 689 ft | 26 kts | 351° |
| 2026-04-21 05:04 | 33.00209 | -97.31953 | 689 ft | 30 kts | 350° |
| 2026-04-21 05:04 | 33.00406 | -97.31996 | 689 ft | 24 kts | 351° |
| 2026-04-21 05:04 | 33.00538 | -97.32032 | 689 ft | 12 kts | 297° |
| 2026-04-21 05:04 | 33.00542 | -97.32051 | 689 ft | 0 kts | 266° |
| 2026-04-21 05:05 | 33.00542 | -97.32052 | 689 ft | 0 kts | 266° |
| 2026-04-21 05:05 | 33.00533 | -97.32123 | 689 ft | 18 kts | 253° |
| 2026-04-21 05:05 | 33.00469 | -97.32140 | 683 ft | 6 kts | 168° |
| 2026-04-21 05:06 | 33.00419 | -97.32129 | 689 ft | 17 kts | 170° |
| 2026-04-21 05:06 | 33.00129 | -97.32071 | 689 ft | 67 kts | 171° |
| 2026-04-21 05:06 | 32.99557 | -97.31960 | 770 ft | 96 kts | 171° |
| 2026-04-21 05:06 | 32.98842 | -97.31814 | 961 ft | 110 kts | 172° |
| 2026-04-21 05:07 | 32.98091 | -97.31653 | 1312 ft | 109 kts | 170° |
| 2026-04-21 05:07 | 32.97347 | -97.31477 | 1656 ft | 109 kts | 172° |
| 2026-04-21 05:07 | 32.96585 | -97.31348 | 1956 ft | 112 kts | 174° |
| 2026-04-21 05:07 | 32.95824 | -97.31075 | 2209 ft | 121 kts | 146° |
| 2026-04-21 05:08 | 32.95410 | -97.30164 | 2498 ft | 129 kts | 116° |
| 2026-04-21 05:08 | 32.95123 | -97.29175 | 2786 ft | 124 kts | 117° |
| 2026-04-21 05:08 | 32.94839 | -97.28192 | 2981 ft | 127 kts | 117° |
| 2026-04-21 05:08 | 32.94532 | -97.27154 | 2998 ft | 140 kts | 117° |
| 2026-04-21 05:09 | 32.94185 | -97.26030 | 3010 ft | 149 kts | 117° |
| 2026-04-21 05:09 | 32.93818 | -97.24853 | 3004 ft | 154 kts | 117° |
| 2026-04-21 05:09 | 32.93441 | -97.23648 | 3002 ft | 156 kts | 117° |
| 2026-04-21 05:09 | 32.93053 | -97.22414 | 3011 ft | 158 kts | 117° |
| 2026-04-21 05:10 | 32.92886 | -97.21123 | 2992 ft | 169 kts | 87° |
| 2026-04-21 05:10 | 32.93360 | -97.19805 | 2989 ft | 176 kts | 68° |
| 2026-04-21 05:10 | 32.93943 | -97.18523 | 2990 ft | 176 kts | 68° |
| 2026-04-21 05:10 | 32.94531 | -97.17240 | 2985 ft | 176 kts | 68° |
| 2026-04-21 05:11 | 32.94861 | -97.15897 | 2988 ft | 165 kts | 102° |
| 2026-04-21 05:11 | 32.94330 | -97.14801 | 2989 ft | 152 kts | 149° |
| 2026-04-21 05:11 | 32.93334 | -97.14456 | 3001 ft | 150 kts | 174° |
| 2026-04-21 05:11 | 32.92304 | -97.14630 | 3002 ft | 151 kts | 193° |
| 2026-04-21 05:12 | 32.91275 | -97.14829 | 2998 ft | 148 kts | 183° |
| 2026-04-21 05:12 | 32.90273 | -97.14890 | 3106 ft | 138 kts | 181° |
| 2026-04-21 05:12 | 32.89313 | -97.14933 | 3255 ft | 138 kts | 181° |
| 2026-04-21 05:12 | 32.88359 | -97.14971 | 3407 ft | 136 kts | 181° |
| 2026-04-21 05:13 | 32.87415 | -97.15008 | 3550 ft | 135 kts | 181° |
| 2026-04-21 05:13 | 32.86479 | -97.15042 | 3692 ft | 134 kts | 181° |
| 2026-04-21 05:13 | 32.85547 | -97.15075 | 3837 ft | 134 kts | 181° |
| 2026-04-21 05:13 | 32.84612 | -97.15109 | 3982 ft | 134 kts | 181° |
| 2026-04-21 05:14 | 32.83662 | -97.15143 | 4129 ft | 135 kts | 182° |
| 2026-04-21 05:14 | 32.82731 | -97.15176 | 4273 ft | 136 kts | 182° |
| 2026-04-21 05:14 | 32.81787 | -97.15210 | 4421 ft | 136 kts | 182° |
| 2026-04-21 05:14 | 32.80835 | -97.15244 | 4571 ft | 137 kts | 182° |
| 2026-04-21 05:15 | 32.79877 | -97.15279 | 4749 ft | 138 kts | 182° |
| 2026-04-21 05:15 | 32.78910 | -97.15314 | 4905 ft | 139 kts | 182° |
| 2026-04-21 05:15 | 32.77936 | -97.15349 | 5057 ft | 140 kts | 183° |
| 2026-04-21 05:15 | 32.76962 | -97.15384 | 5205 ft | 140 kts | 183° |
| 2026-04-21 05:16 | 32.75983 | -97.15419 | 5333 ft | 141 kts | 183° |
| 2026-04-21 05:16 | 32.75002 | -97.15455 | 5481 ft | 141 kts | 183° |
| 2026-04-21 05:16 | 32.74021 | -97.15490 | 5628 ft | 141 kts | 182° |
| 2026-04-21 05:16 | 32.73038 | -97.15525 | 5778 ft | 141 kts | 182° |
| 2026-04-21 05:17 | 32.72055 | -97.15561 | 5928 ft | 141 kts | 182° |
| 2026-04-21 05:17 | 32.71070 | -97.15596 | 6077 ft | 141 kts | 182° |
| 2026-04-21 05:17 | 32.70088 | -97.15632 | 6228 ft | 141 kts | 182° |
| 2026-04-21 05:17 | 32.69107 | -97.15666 | 6375 ft | 141 kts | 182° |
| 2026-04-21 05:18 | 32.68127 | -97.15702 | 6521 ft | 141 kts | 182° |
| 2026-04-21 05:18 | 32.67151 | -97.15737 | 6671 ft | 140 kts | 182° |
| 2026-04-21 05:18 | 32.66175 | -97.15772 | 6810 ft | 140 kts | 182° |
| 2026-04-21 05:18 | 32.65201 | -97.15807 | 6952 ft | 140 kts | 183° |
| 2026-04-21 05:19 | 32.64210 | -97.15844 | 7006 ft | 146 kts | 183° |
| 2026-04-21 05:19 | 32.63168 | -97.15885 | 7010 ft | 152 kts | 183° |
| 2026-04-21 05:19 | 32.62092 | -97.15926 | 7019 ft | 157 kts | 183° |
| 2026-04-21 05:19 | 32.60993 | -97.15965 | 7021 ft | 159 kts | 183° |
| 2026-04-21 05:20 | 32.59879 | -97.16005 | 7020 ft | 161 kts | 183° |
| 2026-04-21 05:20 | 32.58754 | -97.16046 | 7019 ft | 162 kts | 183° |
| 2026-04-21 05:20 | 32.57621 | -97.16086 | 7012 ft | 163 kts | 183° |
| 2026-04-21 05:20 | 32.56487 | -97.16127 | 7013 ft | 163 kts | 183° |
| 2026-04-21 05:21 | 32.55349 | -97.16168 | 7005 ft | 163 kts | 183° |
| 2026-04-21 05:21 | 32.54212 | -97.16209 | 6999 ft | 163 kts | 183° |
| 2026-04-21 05:21 | 32.53077 | -97.16250 | 7002 ft | 163 kts | 183° |
| 2026-04-21 05:21 | 32.51940 | -97.16291 | 7001 ft | 163 kts | 183° |
| 2026-04-21 05:22 | 32.50804 | -97.16331 | 7000 ft | 163 kts | 183° |
| 2026-04-21 05:22 | 32.49668 | -97.16372 | 6999 ft | 163 kts | 183° |
| 2026-04-21 05:22 | 32.48532 | -97.16413 | 6997 ft | 163 kts | 183° |
| 2026-04-21 05:22 | 32.47394 | -97.16454 | 6995 ft | 163 kts | 182° |
| 2026-04-21 05:23 | 32.46261 | -97.16495 | 6994 ft | 163 kts | 183° |
| 2026-04-21 05:23 | 32.45127 | -97.16535 | 6991 ft | 163 kts | 183° |
| 2026-04-21 05:23 | 32.43995 | -97.16576 | 6989 ft | 162 kts | 183° |
| 2026-04-21 05:23 | 32.42865 | -97.16616 | 6988 ft | 163 kts | 183° |
| 2026-04-21 05:24 | 32.41732 | -97.16657 | 6987 ft | 163 kts | 183° |
| 2026-04-21 05:24 | 32.40600 | -97.16698 | 6989 ft | 163 kts | 183° |
| 2026-04-21 05:24 | 32.39470 | -97.16738 | 6988 ft | 162 kts | 184° |
| 2026-04-21 05:24 | 32.38341 | -97.16779 | 6986 ft | 162 kts | 183° |
| 2026-04-21 05:25 | 32.37208 | -97.16819 | 6956 ft | 163 kts | 184° |
| 2026-04-21 05:25 | 32.36076 | -97.16860 | 6954 ft | 162 kts | 183° |
| 2026-04-21 05:25 | 32.34960 | -97.16900 | 6955 ft | 162 kts | 184° |
| 2026-04-21 05:25 | 32.33831 | -97.16940 | 6980 ft | 163 kts | 183° |
| 2026-04-21 05:26 | 32.32701 | -97.16981 | 6982 ft | 163 kts | 183° |
| 2026-04-21 05:26 | 32.31554 | -97.17022 | 6983 ft | 163 kts | 183° |
| 2026-04-21 05:26 | 32.30437 | -97.17061 | 6987 ft | 163 kts | 184° |
| 2026-04-21 05:26 | 32.29289 | -97.17103 | 6988 ft | 163 kts | 183° |
| 2026-04-21 05:27 | 32.28157 | -97.17144 | 6989 ft | 163 kts | 183° |
| 2026-04-21 05:27 | 32.27027 | -97.17184 | 6990 ft | 163 kts | 183° |
| 2026-04-21 05:27 | 32.25892 | -97.17225 | 6990 ft | 163 kts | 183° |
| 2026-04-21 05:27 | 32.24762 | -97.17265 | 6995 ft | 163 kts | 183° |
| 2026-04-21 05:28 | 32.23628 | -97.17306 | 6996 ft | 163 kts | 183° |
| 2026-04-21 05:28 | 32.22509 | -97.17346 | 6996 ft | 163 kts | 183° |
| 2026-04-21 05:28 | 32.21376 | -97.17386 | 6997 ft | 163 kts | 183° |
| 2026-04-21 05:28 | 32.20229 | -97.17427 | 7000 ft | 163 kts | 183° |
| 2026-04-21 05:29 | 32.19111 | -97.17467 | 7000 ft | 163 kts | 183° |
| 2026-04-21 05:29 | 32.17979 | -97.17507 | 7001 ft | 163 kts | 183° |
| 2026-04-21 05:29 | 32.16833 | -97.17548 | 7003 ft | 162 kts | 183° |
| 2026-04-21 05:29 | 32.15704 | -97.17588 | 7004 ft | 162 kts | 183° |
| 2026-04-21 05:30 | 32.14590 | -97.17628 | 7004 ft | 162 kts | 184° |
| 2026-04-21 05:30 | 32.13448 | -97.17669 | 7006 ft | 162 kts | 184° |
| 2026-04-21 05:30 | 32.12318 | -97.17708 | 7006 ft | 162 kts | 184° |
| 2026-04-21 05:30 | 32.11188 | -97.17749 | 7004 ft | 162 kts | 184° |
| 2026-04-21 05:31 | 32.10059 | -97.17789 | 7004 ft | 162 kts | 184° |
| 2026-04-21 05:31 | 32.08930 | -97.17829 | 7006 ft | 162 kts | 184° |
| 2026-04-21 05:31 | 32.07799 | -97.17870 | 7006 ft | 162 kts | 184° |
| 2026-04-21 05:31 | 32.06728 | -97.17900 | 6993 ft | 136 kts | 183° |
| 2026-04-21 05:32 | 32.03988 | -97.17972 | 7005 ft | 103 kts | 185° |
| 2026-04-21 05:33 | 32.03255 | -97.18002 | 7009 ft | 107 kts | 185° |
| 2026-04-21 05:33 | 32.02501 | -97.18032 | 7019 ft | 110 kts | 185° |
| 2026-04-21 05:33 | 32.01729 | -97.18060 | 7019 ft | 112 kts | 185° |
| 2026-04-21 05:33 | 32.00951 | -97.18089 | 7020 ft | 114 kts | 185° |
| 2026-04-21 05:34 | 32.00153 | -97.18117 | 7020 ft | 115 kts | 185° |
| 2026-04-21 05:34 | 31.99350 | -97.18146 | 7020 ft | 116 kts | 185° |
| 2026-04-21 05:34 | 31.98531 | -97.18175 | 7022 ft | 116 kts | 185° |
| 2026-04-21 05:34 | 31.97718 | -97.18204 | 7019 ft | 117 kts | 185° |
| 2026-04-21 05:35 | 31.96915 | -97.18232 | 7020 ft | 117 kts | 184° |
| 2026-04-21 05:35 | 31.96103 | -97.18261 | 7019 ft | 117 kts | 185° |
| 2026-04-21 05:35 | 31.95289 | -97.18290 | 7019 ft | 117 kts | 185° |
| 2026-04-21 05:35 | 31.94477 | -97.18319 | 7019 ft | 117 kts | 185° |
| 2026-04-21 05:36 | 31.93661 | -97.18348 | 7014 ft | 118 kts | 185° |
| 2026-04-21 05:36 | 31.92838 | -97.18378 | 7014 ft | 118 kts | 185° |
| 2026-04-21 05:36 | 31.92018 | -97.18406 | 7013 ft | 118 kts | 185° |
| 2026-04-21 05:36 | 31.91201 | -97.18434 | 7010 ft | 117 kts | 185° |
| 2026-04-21 05:37 | 31.90370 | -97.18466 | 7015 ft | 123 kts | 185° |
| 2026-04-21 05:37 | 31.89496 | -97.18501 | 7017 ft | 128 kts | 185° |
| 2026-04-21 05:37 | 31.88594 | -97.18535 | 7014 ft | 131 kts | 184° |
| 2026-04-21 05:37 | 31.87678 | -97.18568 | 7009 ft | 133 kts | 184° |
| 2026-04-21 05:38 | 31.86752 | -97.18600 | 7014 ft | 133 kts | 184° |
| 2026-04-21 05:38 | 31.85820 | -97.18633 | 7014 ft | 134 kts | 184° |
| 2026-04-21 05:38 | 31.84885 | -97.18666 | 7013 ft | 134 kts | 184° |
| 2026-04-21 05:38 | 31.83949 | -97.18699 | 7013 ft | 134 kts | 184° |
| 2026-04-21 05:39 | 31.83013 | -97.18732 | 7009 ft | 135 kts | 184° |
| 2026-04-21 05:39 | 31.82073 | -97.18765 | 7006 ft | 135 kts | 184° |
| 2026-04-21 05:39 | 31.81136 | -97.18798 | 7008 ft | 135 kts | 184° |
| 2026-04-21 05:39 | 31.80198 | -97.18832 | 7007 ft | 135 kts | 185° |
| 2026-04-21 05:40 | 31.79261 | -97.18865 | 7009 ft | 134 kts | 184° |
| 2026-04-21 05:40 | 31.78328 | -97.18897 | 7008 ft | 134 kts | 184° |
| 2026-04-21 05:40 | 31.77391 | -97.18930 | 7006 ft | 135 kts | 184° |
| 2026-04-21 05:40 | 31.76453 | -97.18964 | 7005 ft | 134 kts | 184° |
| 2026-04-21 05:41 | 31.75519 | -97.18997 | 7009 ft | 134 kts | 184° |
| 2026-04-21 05:41 | 31.74582 | -97.19030 | 7003 ft | 135 kts | 184° |
| 2026-04-21 05:41 | 31.73646 | -97.19064 | 7007 ft | 135 kts | 184° |
| 2026-04-21 05:41 | 31.72708 | -97.19096 | 7003 ft | 135 kts | 184° |
| 2026-04-21 05:42 | 31.71769 | -97.19130 | 7002 ft | 135 kts | 184° |
| 2026-04-21 05:42 | 31.70828 | -97.19163 | 7002 ft | 135 kts | 184° |
| 2026-04-21 05:42 | 31.69885 | -97.19196 | 7001 ft | 135 kts | 184° |
| 2026-04-21 05:42 | 31.68948 | -97.19229 | 7001 ft | 135 kts | 184° |
| 2026-04-21 05:43 | 31.68008 | -97.19263 | 7007 ft | 135 kts | 184° |
| 2026-04-21 05:43 | 31.67070 | -97.19313 | 7007 ft | 134 kts | 188° |
| 2026-04-21 05:43 | 31.66143 | -97.19439 | 7006 ft | 134 kts | 187° |
| 2026-04-21 05:43 | 31.65209 | -97.19510 | 7006 ft | 134 kts | 185° |
| 2026-04-21 05:44 | 31.64274 | -97.19553 | 7014 ft | 135 kts | 185° |
| 2026-04-21 05:44 | 31.63336 | -97.19587 | 7027 ft | 134 kts | 184° |
| 2026-04-21 05:44 | 31.62402 | -97.19618 | 7027 ft | 134 kts | 184° |
| 2026-04-21 05:44 | 31.61470 | -97.19647 | 7027 ft | 134 kts | 184° |
| 2026-04-21 05:45 | 31.60535 | -97.19677 | 7027 ft | 134 kts | 184° |
| 2026-04-21 05:45 | 31.59598 | -97.19706 | 7021 ft | 135 kts | 184° |
| 2026-04-21 05:45 | 31.58676 | -97.19740 | 7023 ft | 134 kts | 182° |
| 2026-04-21 05:45 | 31.57734 | -97.19766 | 7023 ft | 133 kts | 183° |
| 2026-04-21 05:46 | 31.56807 | -97.19794 | 7026 ft | 133 kts | 183° |
| 2026-04-21 05:46 | 31.55880 | -97.19823 | 7021 ft | 133 kts | 183° |
| 2026-04-21 05:46 | 31.54967 | -97.19851 | 7023 ft | 133 kts | 183° |
| 2026-04-21 05:46 | 31.54043 | -97.19880 | 7022 ft | 133 kts | 183° |
| 2026-04-21 05:47 | 31.53121 | -97.19909 | 7019 ft | 133 kts | 183° |
| 2026-04-21 05:47 | 31.52196 | -97.19938 | 7022 ft | 133 kts | 183° |
| 2026-04-21 05:47 | 31.51271 | -97.19967 | 7018 ft | 133 kts | 183° |
| 2026-04-21 05:47 | 31.50345 | -97.19996 | 7030 ft | 133 kts | 183° |
| 2026-04-21 05:48 | 31.49424 | -97.20025 | 7027 ft | 132 kts | 183° |
| 2026-04-21 05:48 | 31.48501 | -97.20054 | 7030 ft | 133 kts | 183° |
| 2026-04-21 05:48 | 31.47573 | -97.20083 | 7030 ft | 133 kts | 183° |
| 2026-04-21 05:48 | 31.46649 | -97.20113 | 7031 ft | 133 kts | 183° |
| 2026-04-21 05:49 | 31.45724 | -97.20142 | 7026 ft | 133 kts | 183° |
| 2026-04-21 05:49 | 31.44795 | -97.20171 | 7029 ft | 133 kts | 183° |
| 2026-04-21 05:49 | 31.43872 | -97.20199 | 7025 ft | 133 kts | 183° |
| 2026-04-21 05:49 | 31.42949 | -97.20228 | 7027 ft | 133 kts | 183° |
| 2026-04-21 05:50 | 31.42028 | -97.20257 | 7029 ft | 132 kts | 183° |
| 2026-04-21 05:50 | 31.41111 | -97.20285 | 7028 ft | 131 kts | 183° |
| 2026-04-21 05:50 | 31.40194 | -97.20313 | 7027 ft | 132 kts | 183° |
| 2026-04-21 05:50 | 31.39276 | -97.20342 | 7026 ft | 132 kts | 183° |
| 2026-04-21 05:51 | 31.38359 | -97.20371 | 7024 ft | 132 kts | 182° |
| 2026-04-21 05:51 | 31.37442 | -97.20400 | 7024 ft | 132 kts | 183° |
| 2026-04-21 05:51 | 31.36521 | -97.20428 | 7023 ft | 132 kts | 183° |
| 2026-04-21 05:51 | 31.35614 | -97.20456 | 7023 ft | 132 kts | 183° |
| 2026-04-21 05:52 | 31.34696 | -97.20485 | 7024 ft | 132 kts | 182° |
| 2026-04-21 05:52 | 31.33779 | -97.20514 | 7023 ft | 132 kts | 182° |
| 2026-04-21 05:52 | 31.32859 | -97.20543 | 7025 ft | 132 kts | 183° |
| 2026-04-21 05:52 | 31.31941 | -97.20572 | 7016 ft | 131 kts | 182° |
| 2026-04-21 05:53 | 31.31028 | -97.20601 | 7016 ft | 131 kts | 182° |
| 2026-04-21 05:53 | 31.30114 | -97.20629 | 7017 ft | 132 kts | 182° |
| 2026-04-21 05:53 | 31.29199 | -97.20657 | 7016 ft | 131 kts | 182° |
| 2026-04-21 05:53 | 31.28283 | -97.20685 | 7011 ft | 131 kts | 182° |
| 2026-04-21 05:54 | 31.27369 | -97.20714 | 7012 ft | 132 kts | 182° |
| 2026-04-21 05:54 | 31.26448 | -97.20743 | 7012 ft | 132 kts | 182° |
| 2026-04-21 05:54 | 31.25532 | -97.20771 | 7011 ft | 131 kts | 182° |
| 2026-04-21 05:54 | 31.24619 | -97.20800 | 7006 ft | 131 kts | 182° |
| 2026-04-21 05:55 | 31.23706 | -97.20829 | 7009 ft | 131 kts | 182° |
| 2026-04-21 05:55 | 31.22793 | -97.20857 | 7008 ft | 131 kts | 182° |
| 2026-04-21 05:55 | 31.21880 | -97.20885 | 7012 ft | 131 kts | 182° |
| 2026-04-21 05:55 | 31.20964 | -97.20915 | 7012 ft | 131 kts | 183° |
| 2026-04-21 05:56 | 31.20086 | -97.21176 | 7014 ft | 131 kts | 199° |
| 2026-04-21 05:56 | 31.19223 | -97.21525 | 7010 ft | 131 kts | 197° |
| 2026-04-21 05:56 | 31.18357 | -97.21862 | 7001 ft | 131 kts | 197° |
| 2026-04-21 05:56 | 31.17490 | -97.22200 | 7002 ft | 131 kts | 197° |
| 2026-04-21 05:57 | 31.16634 | -97.22534 | 7006 ft | 131 kts | 197° |
| 2026-04-21 05:57 | 31.15759 | -97.22876 | 7006 ft | 131 kts | 197° |
| 2026-04-21 05:57 | 31.14904 | -97.23208 | 7005 ft | 131 kts | 197° |
| 2026-04-21 05:57 | 31.14024 | -97.23552 | 7006 ft | 132 kts | 197° |
| 2026-04-21 05:58 | 31.13166 | -97.23886 | 7006 ft | 132 kts | 197° |
| 2026-04-21 05:58 | 31.12295 | -97.24225 | 7006 ft | 132 kts | 197° |
| 2026-04-21 05:58 | 31.11426 | -97.24565 | 7006 ft | 132 kts | 197° |
| 2026-04-21 05:58 | 31.10553 | -97.24905 | 7006 ft | 132 kts | 197° |
| 2026-04-21 05:59 | 31.09682 | -97.25244 | 7007 ft | 132 kts | 197° |
| 2026-04-21 05:59 | 31.08810 | -97.25583 | 7002 ft | 132 kts | 197° |
| 2026-04-21 05:59 | 31.07939 | -97.25923 | 7002 ft | 132 kts | 197° |
| 2026-04-21 06:00 | 31.06490 | -97.26487 | 7000 ft | 132 kts | 197° |
| 2026-04-21 06:00 | 31.05620 | -97.26826 | 7000 ft | 132 kts | 197° |
| 2026-04-21 06:00 | 31.04751 | -97.27163 | 7003 ft | 131 kts | 197° |
| 2026-04-21 06:00 | 31.03884 | -97.27501 | 7002 ft | 131 kts | 197° |
| 2026-04-21 06:01 | 31.03016 | -97.27838 | 7001 ft | 132 kts | 197° |
| 2026-04-21 06:01 | 31.02145 | -97.28177 | 7001 ft | 132 kts | 197° |
| 2026-04-21 06:01 | 31.01275 | -97.28516 | 7002 ft | 132 kts | 197° |
| 2026-04-21 06:01 | 31.00403 | -97.28855 | 6998 ft | 132 kts | 197° |
| 2026-04-21 06:02 | 30.99528 | -97.29195 | 7002 ft | 132 kts | 197° |
| 2026-04-21 06:02 | 30.98654 | -97.29535 | 7004 ft | 132 kts | 197° |
| 2026-04-21 06:02 | 30.97782 | -97.29873 | 7001 ft | 132 kts | 197° |
| 2026-04-21 06:02 | 30.96907 | -97.30213 | 7001 ft | 132 kts | 197° |
| 2026-04-21 06:03 | 30.96033 | -97.30553 | 6999 ft | 132 kts | 197° |
| 2026-04-21 06:03 | 30.95159 | -97.30892 | 7001 ft | 132 kts | 197° |
| 2026-04-21 06:03 | 30.94284 | -97.31232 | 6998 ft | 132 kts | 197° |
| 2026-04-21 06:03 | 30.93410 | -97.31571 | 6998 ft | 132 kts | 197° |
| 2026-04-21 06:04 | 30.92536 | -97.31910 | 7001 ft | 132 kts | 197° |
| 2026-04-21 06:04 | 30.91660 | -97.32250 | 7003 ft | 132 kts | 197° |
| 2026-04-21 06:04 | 30.90787 | -97.32589 | 7001 ft | 132 kts | 197° |
| 2026-04-21 06:04 | 30.89913 | -97.32927 | 7002 ft | 132 kts | 197° |
| 2026-04-21 06:05 | 30.89041 | -97.33266 | 7002 ft | 132 kts | 197° |
| 2026-04-21 06:05 | 30.88170 | -97.33603 | 7002 ft | 132 kts | 197° |
| 2026-04-21 06:05 | 30.87297 | -97.33942 | 7002 ft | 132 kts | 197° |
| 2026-04-21 06:05 | 30.86425 | -97.34280 | 6999 ft | 132 kts | 197° |
| 2026-04-21 06:06 | 30.85559 | -97.34621 | 7000 ft | 131 kts | 197° |
| 2026-04-21 06:06 | 30.84689 | -97.34958 | 7002 ft | 132 kts | 197° |
| 2026-04-21 06:06 | 30.83816 | -97.35291 | 7003 ft | 131 kts | 197° |
| 2026-04-21 06:06 | 30.82946 | -97.35627 | 6999 ft | 132 kts | 197° |
| 2026-04-21 06:07 | 30.82084 | -97.35963 | 6998 ft | 132 kts | 197° |
| 2026-04-21 06:07 | 30.81213 | -97.36300 | 6995 ft | 132 kts | 197° |
| 2026-04-21 06:07 | 30.80340 | -97.36639 | 7000 ft | 132 kts | 197° |
| 2026-04-21 06:07 | 30.79470 | -97.36976 | 7000 ft | 132 kts | 197° |
| 2026-04-21 06:08 | 30.78601 | -97.37308 | 7003 ft | 132 kts | 197° |
| 2026-04-21 06:08 | 30.77730 | -97.37646 | 7001 ft | 132 kts | 197° |
| 2026-04-21 06:08 | 30.76855 | -97.37986 | 7004 ft | 133 kts | 197° |
| 2026-04-21 06:08 | 30.75979 | -97.38324 | 6998 ft | 133 kts | 197° |
| 2026-04-21 06:09 | 30.75103 | -97.38663 | 7004 ft | 133 kts | 197° |
| 2026-04-21 06:09 | 30.74227 | -97.39002 | 6993 ft | 133 kts | 197° |
| 2026-04-21 06:09 | 30.73352 | -97.39341 | 6996 ft | 132 kts | 197° |
| 2026-04-21 06:09 | 30.72479 | -97.39678 | 6995 ft | 132 kts | 197° |
| 2026-04-21 06:10 | 30.71605 | -97.40015 | 6994 ft | 132 kts | 197° |
| 2026-04-21 06:10 | 30.70733 | -97.40352 | 6991 ft | 132 kts | 197° |
| 2026-04-21 06:10 | 30.69860 | -97.40688 | 6989 ft | 132 kts | 197° |
| 2026-04-21 06:10 | 30.68991 | -97.41026 | 6991 ft | 132 kts | 197° |
| 2026-04-21 06:11 | 30.68119 | -97.41361 | 6992 ft | 132 kts | 197° |
| 2026-04-21 06:11 | 30.67249 | -97.41696 | 6989 ft | 131 kts | 197° |
| 2026-04-21 06:11 | 30.66382 | -97.42030 | 6992 ft | 131 kts | 197° |
| 2026-04-21 06:11 | 30.65515 | -97.42365 | 6992 ft | 131 kts | 197° |
| 2026-04-21 06:12 | 30.64647 | -97.42700 | 6989 ft | 131 kts | 197° |
| 2026-04-21 06:12 | 30.63780 | -97.43034 | 6991 ft | 131 kts | 197° |
| 2026-04-21 06:12 | 30.62915 | -97.43368 | 6991 ft | 131 kts | 197° |
| 2026-04-21 06:12 | 30.62049 | -97.43701 | 6991 ft | 131 kts | 197° |
| 2026-04-21 06:13 | 30.61185 | -97.44034 | 6989 ft | 131 kts | 197° |
| 2026-04-21 06:13 | 30.60321 | -97.44367 | 6992 ft | 131 kts | 197° |
| 2026-04-21 06:13 | 30.59454 | -97.44701 | 6992 ft | 131 kts | 197° |
| 2026-04-21 06:13 | 30.58584 | -97.45036 | 6992 ft | 131 kts | 197° |
| 2026-04-21 06:14 | 30.57717 | -97.45371 | 6993 ft | 131 kts | 197° |
| 2026-04-21 06:14 | 30.56850 | -97.45704 | 6993 ft | 131 kts | 197° |
| 2026-04-21 06:14 | 30.55982 | -97.46039 | 6989 ft | 131 kts | 197° |
| 2026-04-21 06:14 | 30.55114 | -97.46373 | 6996 ft | 131 kts | 198° |
| 2026-04-21 06:15 | 30.54256 | -97.46706 | 6996 ft | 131 kts | 197° |
| 2026-04-21 06:15 | 30.53388 | -97.47037 | 6996 ft | 131 kts | 197° |
| 2026-04-21 06:15 | 30.52519 | -97.47372 | 6994 ft | 132 kts | 198° |
| 2026-04-21 06:15 | 30.51651 | -97.47709 | 6993 ft | 131 kts | 197° |
| 2026-04-21 06:16 | 30.50782 | -97.48040 | 6992 ft | 132 kts | 198° |
| 2026-04-21 06:16 | 30.49910 | -97.48376 | 6991 ft | 132 kts | 197° |
| 2026-04-21 06:16 | 30.49039 | -97.48711 | 6994 ft | 132 kts | 197° |
| 2026-04-21 06:16 | 30.48166 | -97.49047 | 6995 ft | 132 kts | 197° |
| 2026-04-21 06:17 | 30.47292 | -97.49384 | 6993 ft | 132 kts | 197° |
| 2026-04-21 06:17 | 30.46418 | -97.49718 | 6991 ft | 132 kts | 197° |
| 2026-04-21 06:17 | 30.45544 | -97.50054 | 6988 ft | 132 kts | 197° |
| 2026-04-21 06:17 | 30.44668 | -97.50391 | 6985 ft | 133 kts | 197° |
| 2026-04-21 06:18 | 30.43792 | -97.50725 | 6981 ft | 132 kts | 197° |
| 2026-04-21 06:18 | 30.42919 | -97.51060 | 6982 ft | 132 kts | 197° |
| 2026-04-21 06:18 | 30.42048 | -97.51396 | 6981 ft | 132 kts | 197° |
| 2026-04-21 06:18 | 30.41177 | -97.51729 | 6980 ft | 132 kts | 197° |
| 2026-04-21 06:19 | 30.40307 | -97.52062 | 6978 ft | 132 kts | 197° |
| 2026-04-21 06:19 | 30.39419 | -97.52404 | 6872 ft | 137 kts | 197° |
| 2026-04-21 06:19 | 30.38500 | -97.52764 | 6762 ft | 141 kts | 198° |
| 2026-04-21 06:19 | 30.37565 | -97.53139 | 6650 ft | 142 kts | 198° |
| 2026-04-21 06:20 | 30.36636 | -97.53515 | 6532 ft | 143 kts | 198° |
| 2026-04-21 06:20 | 30.35693 | -97.53903 | 6409 ft | 144 kts | 198° |
| 2026-04-21 06:20 | 30.34749 | -97.54292 | 6286 ft | 144 kts | 198° |
| 2026-04-21 06:20 | 30.33802 | -97.54683 | 6161 ft | 144 kts | 198° |
| 2026-04-21 06:21 | 30.32859 | -97.55077 | 6041 ft | 144 kts | 198° |
| 2026-04-21 06:21 | 30.31918 | -97.55473 | 5916 ft | 144 kts | 198° |
| 2026-04-21 06:21 | 30.30977 | -97.55872 | 5793 ft | 144 kts | 198° |
| 2026-04-21 06:21 | 30.30040 | -97.56273 | 5670 ft | 143 kts | 198° |
| 2026-04-21 06:22 | 30.29105 | -97.56673 | 5554 ft | 143 kts | 198° |
| 2026-04-21 06:22 | 30.28169 | -97.57079 | 5433 ft | 143 kts | 198° |
| 2026-04-21 06:22 | 30.27234 | -97.57487 | 5311 ft | 144 kts | 198° |
| 2026-04-21 06:22 | 30.26299 | -97.57900 | 5189 ft | 144 kts | 198° |
| 2026-04-21 06:23 | 30.25379 | -97.58307 | 5070 ft | 143 kts | 198° |
| 2026-04-21 06:23 | 30.24452 | -97.58725 | 4949 ft | 142 kts | 197° |
| 2026-04-21 06:23 | 30.23532 | -97.59156 | 4825 ft | 142 kts | 198° |
| 2026-04-21 06:23 | 30.22622 | -97.59590 | 4701 ft | 141 kts | 198° |
| 2026-04-21 06:24 | 30.21720 | -97.60031 | 4572 ft | 141 kts | 198° |
| 2026-04-21 06:24 | 30.20820 | -97.60473 | 4449 ft | 140 kts | 198° |
| 2026-04-21 06:24 | 30.19921 | -97.60920 | 4324 ft | 140 kts | 198° |
| 2026-04-21 06:24 | 30.19029 | -97.61379 | 4198 ft | 140 kts | 198° |
| 2026-04-21 06:25 | 30.18145 | -97.61846 | 4074 ft | 139 kts | 198° |
| 2026-04-21 06:25 | 30.17266 | -97.62308 | 3951 ft | 139 kts | 198° |
| 2026-04-21 06:25 | 30.16374 | -97.62741 | 3824 ft | 137 kts | 188° |
| 2026-04-21 06:25 | 30.15438 | -97.62808 | 3704 ft | 134 kts | 176° |
| 2026-04-21 06:26 | 30.14505 | -97.62835 | 3580 ft | 133 kts | 177° |
| 2026-04-21 06:26 | 30.13577 | -97.62869 | 3455 ft | 133 kts | 177° |
| 2026-04-21 06:26 | 30.12648 | -97.62905 | 3310 ft | 135 kts | 177° |
| 2026-04-21 06:26 | 30.11701 | -97.62930 | 3140 ft | 137 kts | 177° |
| 2026-04-21 06:27 | 30.10749 | -97.62961 | 2964 ft | 137 kts | 177° |
| 2026-04-21 06:27 | 30.09792 | -97.62993 | 2788 ft | 138 kts | 175° |
| 2026-04-21 06:27 | 30.08823 | -97.63066 | 2561 ft | 141 kts | 178° |
| 2026-04-21 06:27 | 30.07830 | -97.63127 | 2313 ft | 143 kts | 178° |
| 2026-04-21 06:28 | 30.06940 | -97.63539 | 2023 ft | 139 kts | 221° |
| 2026-04-21 06:28 | 30.06744 | -97.64579 | 1918 ft | 134 kts | 282° |
| 2026-04-21 06:28 | 30.07203 | -97.65467 | 1765 ft | 125 kts | 301° |
| 2026-04-21 06:28 | 30.07649 | -97.66281 | 1671 ft | 113 kts | 301° |
| 2026-04-21 06:29 | 30.08056 | -97.67012 | 1574 ft | 106 kts | 301° |
| 2026-04-21 06:29 | 30.08653 | -97.67430 | 1416 ft | 99 kts | 358° |
| 2026-04-21 06:29 | 30.09270 | -97.67587 | 1516 ft | 90 kts | 351° |
| 2026-04-21 06:29 | 30.09881 | -97.67723 | 1636 ft | 86 kts | 21° |
| 2026-04-21 06:30 | 30.10376 | -97.67916 | 1398 ft | 112 kts | 288° |
| 2026-04-21 06:30 | 30.10130 | -97.68789 | 1217 ft | 126 kts | 236° |
| 2026-04-21 06:30 | 30.09714 | -97.69591 | 1599 ft | 108 kts | 229° |
| 2026-04-21 06:30 | 30.09339 | -97.70329 | 1788 ft | 106 kts | 224° |
| 2026-04-21 06:31 | 30.08922 | -97.71048 | 1940 ft | 111 kts | 229° |
| 2026-04-21 06:31 | 30.08344 | -97.71532 | 2010 ft | 106 kts | 183° |
| 2026-04-21 06:31 | 30.07601 | -97.71635 | 2003 ft | 108 kts | 160° |
| 2026-04-21 06:31 | 30.07099 | -97.71034 | 2002 ft | 114 kts | 108° |
| 2026-04-21 06:32 | 30.07339 | -97.70106 | 2007 ft | 135 kts | 63° |
| 2026-04-21 06:32 | 30.07964 | -97.69261 | 1993 ft | 142 kts | 60° |
| 2026-04-21 06:32 | 30.08635 | -97.68407 | 2004 ft | 145 kts | 57° |
| 2026-04-21 06:32 | 30.09100 | -97.67825 | 1999 ft | 147 kts | 56° |
| 2026-04-21 06:33 | 30.09984 | -97.67215 | 1981 ft | 152 kts | 19° |
| 2026-04-21 06:33 | 30.11000 | -97.67434 | 1975 ft | 152 kts | 330° |
| 2026-04-21 06:33 | 30.11984 | -97.67891 | 1740 ft | 149 kts | 8° |
| 2026-04-21 06:33 | 30.12904 | -97.67818 | 1674 ft | 109 kts | 11° |
| 2026-04-21 06:34 | 30.13586 | -97.67816 | 1512 ft | 92 kts | 9° |
| 2026-04-21 06:34 | 30.14191 | -97.67812 | 1434 ft | 83 kts | 7° |
| 2026-04-21 06:34 | 30.14755 | -97.67793 | 1341 ft | 81 kts | 5° |
| 2026-04-21 06:34 | 30.15320 | -97.67803 | 1169 ft | 80 kts | 4° |
| 2026-04-21 06:35 | 30.15854 | -97.67800 | 1000 ft | 72 kts | 3° |
| 2026-04-21 06:35 | 30.16342 | -97.67805 | 930 ft | 70 kts | 1° |
| 2026-04-21 06:35 | 30.16838 | -97.67828 | 807 ft | 74 kts | 1° |
| 2026-04-21 06:35 | 30.17350 | -97.67833 | 689 ft | 73 kts | 358° |
| 2026-04-21 06:36 | 30.17869 | -97.67847 | 586 ft | 74 kts | 358° |
| 2026-04-21 06:36 | 30.18357 | -97.67858 | 524 ft | 64 kts | 358° |
| 2026-04-21 06:36 | 30.18750 | -97.67869 | 526 ft | 49 kts | 359° |
| 2026-04-21 06:36 | 30.19061 | -97.67877 | 527 ft | 43 kts | 359° |
| 2026-04-21 06:37 | 30.19356 | -97.67884 | 527 ft | 42 kts | 358° |
| 2026-04-21 06:37 | 30.19680 | -97.67892 | 525 ft | 51 kts | 358° |
| 2026-04-21 06:37 | 30.20048 | -97.67901 | 525 ft | 51 kts | 359° |
| 2026-04-21 06:37 | 30.20384 | -97.67913 | 526 ft | 46 kts | 359° |
| 2026-04-21 06:38 | 30.20716 | -97.67920 | 527 ft | 49 kts | 359° |
| 2026-04-21 06:38 | 30.21064 | -97.67929 | 527 ft | 45 kts | 359° |
| 2026-04-21 06:38 | 30.21333 | -97.67876 | 524 ft | 32 kts | 43° |
| 2026-04-21 06:38 | 30.21468 | -97.67735 | 525 ft | 24 kts | 40° |
| 2026-04-21 06:39 | 30.21601 | -97.67597 | 526 ft | 29 kts | 46° |
| 2026-04-21 06:39 | 30.21650 | -97.67407 | 526 ft | 10 kts | 82° |
| 2026-04-21 06:39 | 30.21666 | -97.67363 | 526 ft | 3 kts | 28° |
| 2026-04-21 06:39 | 30.21701 | -97.67349 | 526 ft | 8 kts | 11° |
| 2026-04-21 06:40 | 30.21719 | -97.67349 | 526 ft | 2 kts | 314° |
| 2026-04-21 06:40 | 30.21716 | -97.67366 | 526 ft | 0 kts | 191° |
| 2026-04-21 06:40 | 30.21715 | -97.67366 | 526 ft | 0 kts | 188° |